sensor_id;sensor_type;location;lat;lon;timestamp;P1;durP1;ratioP1;P2;durP2;ratioP2
61635;SDS011;59438;45.014;39.006;2023-02-01T00:00:27;14.20;;;7.63;;
61635;SDS011;59438;45.014;39.006;2023-02-01T00:02:54;14.73;;;8.02;;
61635;SDS011;59438;45.014;39.006;2023-02-01T00:05:20;13.50;;;7.90;;
61635;SDS011;59438;45.014;39.006;2023-02-01T00:07:47;13.45;;;7.93;;
61635;SDS011;59438;45.014;39.006;2023-02-01T00:10:13;14.55;;;7.60;;
61635;SDS011;59438;45.014;39.006;2023-02-01T00:12:40;13.27;;;7.55;;
61635;SDS011;59438;45.014;39.006;2023-02-01T00:15:08;13.10;;;7.75;;
61635;SDS011;59438;45.014;39.006;2023-02-01T00:17:34;12.18;;;7.20;;
61635;SDS011;59438;45.014;39.006;2023-02-01T00:20:04;16.58;;;7.82;;
61635;SDS011;59438;45.014;39.006;2023-02-01T00:22:31;14.18;;;7.93;;
61635;SDS011;59438;45.014;39.006;2023-02-01T00:24:57;14.45;;;8.38;;
61635;SDS011;59438;45.014;39.006;2023-02-01T00:27:24;12.38;;;7.28;;
61635;SDS011;59438;45.014;39.006;2023-02-01T00:29:53;14.35;;;7.82;;
61635;SDS011;59438;45.014;39.006;2023-02-01T00:32:21;11.13;;;7.45;;
61635;SDS011;59438;45.014;39.006;2023-02-01T00:34:48;15.20;;;8.25;;
61635;SDS011;59438;45.014;39.006;2023-02-01T00:37:14;14.65;;;8.00;;
61635;SDS011;59438;45.014;39.006;2023-02-01T00:39:41;14.48;;;7.13;;
61635;SDS011;59438;45.014;39.006;2023-02-01T00:42:07;12.57;;;7.10;;
61635;SDS011;59438;45.014;39.006;2023-02-01T00:44:33;12.38;;;7.00;;
61635;SDS011;59438;45.014;39.006;2023-02-01T00:47:00;12.45;;;6.63;;
61635;SDS011;59438;45.014;39.006;2023-02-01T00:49:28;10.60;;;6.50;;
61635;SDS011;59438;45.014;39.006;2023-02-01T00:51:54;11.68;;;6.60;;
61635;SDS011;59438;45.014;39.006;2023-02-01T00:54:21;12.65;;;6.47;;
61635;SDS011;59438;45.014;39.006;2023-02-01T00:56:47;10.32;;;6.30;;
61635;SDS011;59438;45.014;39.006;2023-02-01T00:59:13;10.55;;;6.38;;
61635;SDS011;59438;45.014;39.006;2023-02-01T01:01:40;12.23;;;6.90;;
61635;SDS011;59438;45.014;39.006;2023-02-01T01:04:09;11.43;;;6.88;;
61635;SDS011;59438;45.014;39.006;2023-02-01T01:06:37;12.85;;;6.68;;
61635;SDS011;59438;45.014;39.006;2023-02-01T01:09:04;12.43;;;7.10;;
61635;SDS011;59438;45.014;39.006;2023-02-01T01:11:32;11.15;;;6.63;;
61635;SDS011;59438;45.014;39.006;2023-02-01T01:14:00;14.55;;;7.43;;
61635;SDS011;59438;45.014;39.006;2023-02-01T01:16:27;13.15;;;7.53;;
61635;SDS011;59438;45.014;39.006;2023-02-01T01:18:56;15.15;;;8.25;;
61635;SDS011;59438;45.014;39.006;2023-02-01T01:21:23;16.67;;;8.32;;
61635;SDS011;59438;45.014;39.006;2023-02-01T01:23:51;15.25;;;8.27;;
61635;SDS011;59438;45.014;39.006;2023-02-01T01:26:18;14.90;;;8.35;;
61635;SDS011;59438;45.014;39.006;2023-02-01T01:28:46;16.63;;;8.98;;
61635;SDS011;59438;45.014;39.006;2023-02-01T01:31:14;18.38;;;9.63;;
61635;SDS011;59438;45.014;39.006;2023-02-01T01:33:42;19.77;;;10.13;;
61635;SDS011;59438;45.014;39.006;2023-02-01T01:36:09;23.08;;;11.30;;
61635;SDS011;59438;45.014;39.006;2023-02-01T01:38:36;21.40;;;11.40;;
61635;SDS011;59438;45.014;39.006;2023-02-01T01:41:04;21.83;;;10.73;;
61635;SDS011;59438;45.014;39.006;2023-02-01T01:43:47;22.40;;;10.98;;
61635;SDS011;59438;45.014;39.006;2023-02-01T01:46:16;19.63;;;9.95;;
61635;SDS011;59438;45.014;39.006;2023-02-01T01:48:43;17.85;;;9.65;;
61635;SDS011;59438;45.014;39.006;2023-02-01T01:51:10;19.35;;;9.23;;
61635;SDS011;59438;45.014;39.006;2023-02-01T01:53:40;17.98;;;10.00;;
61635;SDS011;59438;45.014;39.006;2023-02-01T01:56:12;16.92;;;9.05;;
61635;SDS011;59438;45.014;39.006;2023-02-01T01:58:39;18.48;;;8.90;;
61635;SDS011;59438;45.014;39.006;2023-02-01T02:01:07;18.40;;;9.30;;
61635;SDS011;59438;45.014;39.006;2023-02-01T02:03:34;18.92;;;8.60;;
61635;SDS011;59438;45.014;39.006;2023-02-01T02:06:03;16.85;;;9.07;;
61635;SDS011;59438;45.014;39.006;2023-02-01T02:08:36;17.40;;;8.60;;
61635;SDS011;59438;45.014;39.006;2023-02-01T02:11:03;16.20;;;8.85;;
61635;SDS011;59438;45.014;39.006;2023-02-01T02:13:31;17.08;;;8.60;;
61635;SDS011;59438;45.014;39.006;2023-02-01T02:16:04;14.50;;;7.57;;
61635;SDS011;59438;45.014;39.006;2023-02-01T02:18:41;17.17;;;8.43;;
61635;SDS011;59438;45.014;39.006;2023-02-01T02:21:17;14.85;;;7.43;;
61635;SDS011;59438;45.014;39.006;2023-02-01T02:24:02;16.88;;;8.55;;
61635;SDS011;59438;45.014;39.006;2023-02-01T02:29:37;17.60;;;8.35;;
61635;SDS011;59438;45.014;39.006;2023-02-01T02:35:27;18.33;;;9.30;;
61635;SDS011;59438;45.014;39.006;2023-02-01T02:38:05;15.05;;;8.43;;
61635;SDS011;59438;45.014;39.006;2023-02-01T02:40:43;18.17;;;8.30;;
61635;SDS011;59438;45.014;39.006;2023-02-01T02:43:16;16.55;;;8.55;;
61635;SDS011;59438;45.014;39.006;2023-02-01T02:45:47;14.38;;;8.48;;
61635;SDS011;59438;45.014;39.006;2023-02-01T02:48:20;19.48;;;9.23;;
61635;SDS011;59438;45.014;39.006;2023-02-01T02:50:57;16.23;;;8.57;;
61635;SDS011;59438;45.014;39.006;2023-02-01T02:53:27;18.77;;;8.60;;
61635;SDS011;59438;45.014;39.006;2023-02-01T02:55:58;18.08;;;8.75;;
61635;SDS011;59438;45.014;39.006;2023-02-01T02:58:25;16.63;;;9.00;;
61635;SDS011;59438;45.014;39.006;2023-02-01T03:00:52;19.35;;;9.18;;
61635;SDS011;59438;45.014;39.006;2023-02-01T03:03:20;18.85;;;8.38;;
61635;SDS011;59438;45.014;39.006;2023-02-01T03:05:47;16.50;;;8.70;;
61635;SDS011;59438;45.014;39.006;2023-02-01T03:08:16;18.80;;;8.27;;
61635;SDS011;59438;45.014;39.006;2023-02-01T03:10:45;15.05;;;8.50;;
61635;SDS011;59438;45.014;39.006;2023-02-01T03:13:18;19.42;;;8.82;;
61635;SDS011;59438;45.014;39.006;2023-02-01T03:15:51;17.90;;;8.25;;
61635;SDS011;59438;45.014;39.006;2023-02-01T03:18:26;16.75;;;8.90;;
61635;SDS011;59438;45.014;39.006;2023-02-01T03:20:57;20.45;;;8.90;;
61635;SDS011;59438;45.014;39.006;2023-02-01T03:23:29;19.48;;;9.35;;
61635;SDS011;59438;45.014;39.006;2023-02-01T03:25:58;21.13;;;8.85;;
61635;SDS011;59438;45.014;39.006;2023-02-01T03:28:28;16.30;;;8.60;;
61635;SDS011;59438;45.014;39.006;2023-02-01T03:30:59;18.55;;;8.77;;
61635;SDS011;59438;45.014;39.006;2023-02-01T03:33:26;19.70;;;8.30;;
61635;SDS011;59438;45.014;39.006;2023-02-01T03:36:00;18.98;;;8.55;;
61635;SDS011;59438;45.014;39.006;2023-02-01T03:38:32;16.80;;;8.45;;
61635;SDS011;59438;45.014;39.006;2023-02-01T03:41:06;18.88;;;8.93;;
61635;SDS011;59438;45.014;39.006;2023-02-01T03:43:42;19.42;;;8.75;;
61635;SDS011;59438;45.014;39.006;2023-02-01T03:46:18;15.40;;;8.23;;
61635;SDS011;59438;45.014;39.006;2023-02-01T03:48:50;16.63;;;8.63;;
61635;SDS011;59438;45.014;39.006;2023-02-01T03:51:19;18.02;;;9.02;;
61635;SDS011;59438;45.014;39.006;2023-02-01T03:53:49;19.13;;;9.15;;
61635;SDS011;59438;45.014;39.006;2023-02-01T03:56:17;18.97;;;9.00;;
61635;SDS011;59438;45.014;39.006;2023-02-01T03:58:47;17.30;;;8.75;;
61635;SDS011;59438;45.014;39.006;2023-02-01T04:01:13;17.02;;;8.93;;
61635;SDS011;59438;45.014;39.006;2023-02-01T04:03:39;18.77;;;9.77;;
61635;SDS011;59438;45.014;39.006;2023-02-01T04:06:06;18.40;;;9.25;;
61635;SDS011;59438;45.014;39.006;2023-02-01T04:08:32;20.45;;;9.70;;
61635;SDS011;59438;45.014;39.006;2023-02-01T04:11:00;21.58;;;9.63;;
61635;SDS011;59438;45.014;39.006;2023-02-01T04:13:26;18.45;;;8.98;;
61635;SDS011;59438;45.014;39.006;2023-02-01T04:15:53;18.30;;;9.15;;
61635;SDS011;59438;45.014;39.006;2023-02-01T04:18:19;17.63;;;8.73;;
61635;SDS011;59438;45.014;39.006;2023-02-01T04:20:45;21.08;;;9.23;;
61635;SDS011;59438;45.014;39.006;2023-02-01T04:23:12;21.63;;;9.43;;
61635;SDS011;59438;45.014;39.006;2023-02-01T04:25:38;21.30;;;9.57;;
61635;SDS011;59438;45.014;39.006;2023-02-01T04:28:06;19.55;;;10.48;;
61635;SDS011;59438;45.014;39.006;2023-02-01T04:30:32;21.13;;;10.27;;
61635;SDS011;59438;45.014;39.006;2023-02-01T04:33:01;19.48;;;8.95;;
61635;SDS011;59438;45.014;39.006;2023-02-01T04:35:28;21.17;;;10.70;;
61635;SDS011;59438;45.014;39.006;2023-02-01T04:37:54;21.17;;;9.82;;
61635;SDS011;59438;45.014;39.006;2023-02-01T04:40:20;25.88;;;10.70;;
61635;SDS011;59438;45.014;39.006;2023-02-01T04:42:47;24.05;;;11.00;;
61635;SDS011;59438;45.014;39.006;2023-02-01T04:45:14;26.13;;;11.95;;
61635;SDS011;59438;45.014;39.006;2023-02-01T04:47:41;24.70;;;11.27;;
61635;SDS011;59438;45.014;39.006;2023-02-01T04:50:08;23.55;;;10.98;;
61635;SDS011;59438;45.014;39.006;2023-02-01T04:52:35;23.20;;;10.90;;
61635;SDS011;59438;45.014;39.006;2023-02-01T04:55:01;26.83;;;11.77;;
61635;SDS011;59438;45.014;39.006;2023-02-01T04:57:28;27.35;;;12.20;;
61635;SDS011;59438;45.014;39.006;2023-02-01T04:59:54;27.75;;;11.27;;
61635;SDS011;59438;45.014;39.006;2023-02-01T05:02:22;25.52;;;11.88;;
61635;SDS011;59438;45.014;39.006;2023-02-01T05:04:49;27.10;;;11.70;;
61635;SDS011;59438;45.014;39.006;2023-02-01T05:07:15;26.25;;;12.10;;
61635;SDS011;59438;45.014;39.006;2023-02-01T05:09:42;28.20;;;12.00;;
61635;SDS011;59438;45.014;39.006;2023-02-01T05:12:08;23.60;;;10.77;;
61635;SDS011;59438;45.014;39.006;2023-02-01T05:14:35;22.70;;;11.27;;
61635;SDS011;59438;45.014;39.006;2023-02-01T05:17:01;24.77;;;11.05;;
61635;SDS011;59438;45.014;39.006;2023-02-01T05:19:29;25.17;;;11.27;;
61635;SDS011;59438;45.014;39.006;2023-02-01T05:21:56;24.67;;;11.00;;
61635;SDS011;59438;45.014;39.006;2023-02-01T05:24:22;23.80;;;11.02;;
61635;SDS011;59438;45.014;39.006;2023-02-01T05:26:48;22.70;;;11.18;;
61635;SDS011;59438;45.014;39.006;2023-02-01T05:29:15;25.92;;;11.48;;
61635;SDS011;59438;45.014;39.006;2023-02-01T05:31:43;23.60;;;10.95;;
61635;SDS011;59438;45.014;39.006;2023-02-01T05:34:10;21.17;;;10.60;;
61635;SDS011;59438;45.014;39.006;2023-02-01T05:36:38;22.67;;;10.63;;
61635;SDS011;59438;45.014;39.006;2023-02-01T05:39:04;24.95;;;10.65;;
61635;SDS011;59438;45.014;39.006;2023-02-01T05:41:30;25.77;;;11.85;;
61635;SDS011;59438;45.014;39.006;2023-02-01T05:43:57;23.38;;;11.05;;
61635;SDS011;59438;45.014;39.006;2023-02-01T05:46:23;21.42;;;10.50;;
61635;SDS011;59438;45.014;39.006;2023-02-01T05:48:49;22.70;;;10.60;;
61635;SDS011;59438;45.014;39.006;2023-02-01T05:51:16;21.30;;;11.05;;
61635;SDS011;59438;45.014;39.006;2023-02-01T05:53:44;25.38;;;11.20;;
61635;SDS011;59438;45.014;39.006;2023-02-01T05:56:10;26.35;;;11.65;;
61635;SDS011;59438;45.014;39.006;2023-02-01T05:58:36;22.02;;;10.68;;
61635;SDS011;59438;45.014;39.006;2023-02-01T06:01:03;23.58;;;11.57;;
61635;SDS011;59438;45.014;39.006;2023-02-01T06:03:29;22.90;;;10.93;;
61635;SDS011;59438;45.014;39.006;2023-02-01T06:05:56;21.45;;;10.45;;
61635;SDS011;59438;45.014;39.006;2023-02-01T06:08:22;24.33;;;12.10;;
61635;SDS011;59438;45.014;39.006;2023-02-01T06:10:50;23.30;;;11.02;;
61635;SDS011;59438;45.014;39.006;2023-02-01T06:13:16;24.77;;;10.98;;
61635;SDS011;59438;45.014;39.006;2023-02-01T06:15:43;24.60;;;11.40;;
61635;SDS011;59438;45.014;39.006;2023-02-01T06:18:09;25.15;;;11.52;;
61635;SDS011;59438;45.014;39.006;2023-02-01T06:20:35;28.13;;;12.90;;
61635;SDS011;59438;45.014;39.006;2023-02-01T06:23:02;27.63;;;11.95;;
61635;SDS011;59438;45.014;39.006;2023-02-01T06:25:28;27.50;;;11.95;;
61635;SDS011;59438;45.014;39.006;2023-02-01T06:27:57;24.85;;;11.93;;
61635;SDS011;59438;45.014;39.006;2023-02-01T06:30:26;23.75;;;11.63;;
61635;SDS011;59438;45.014;39.006;2023-02-01T06:32:52;22.35;;;12.13;;
61635;SDS011;59438;45.014;39.006;2023-02-01T06:35:19;21.52;;;10.98;;
61635;SDS011;59438;45.014;39.006;2023-02-01T06:37:45;24.48;;;11.05;;
61635;SDS011;59438;45.014;39.006;2023-02-01T06:40:11;23.33;;;11.18;;
61635;SDS011;59438;45.014;39.006;2023-02-01T06:42:41;24.77;;;11.18;;
61635;SDS011;59438;45.014;39.006;2023-02-01T06:45:09;21.95;;;11.60;;
61635;SDS011;59438;45.014;39.006;2023-02-01T06:47:36;26.45;;;11.32;;
61635;SDS011;59438;45.014;39.006;2023-02-01T06:50:02;25.83;;;11.25;;
61635;SDS011;59438;45.014;39.006;2023-02-01T06:52:29;24.17;;;11.00;;
61635;SDS011;59438;45.014;39.006;2023-02-01T06:54:55;22.55;;;11.43;;
61635;SDS011;59438;45.014;39.006;2023-02-01T06:57:21;26.80;;;12.80;;
61635;SDS011;59438;45.014;39.006;2023-02-01T06:59:48;22.08;;;11.40;;
61635;SDS011;59438;45.014;39.006;2023-02-01T07:02:16;20.63;;;9.85;;
61635;SDS011;59438;45.014;39.006;2023-02-01T07:04:42;23.75;;;10.68;;
61635;SDS011;59438;45.014;39.006;2023-02-01T07:07:08;25.25;;;11.68;;
61635;SDS011;59438;45.014;39.006;2023-02-01T07:09:35;22.15;;;11.10;;
61635;SDS011;59438;45.014;39.006;2023-02-01T07:12:01;22.92;;;11.68;;
61635;SDS011;59438;45.014;39.006;2023-02-01T07:14:27;22.75;;;11.07;;
61635;SDS011;59438;45.014;39.006;2023-02-01T07:16:54;20.17;;;10.10;;
61635;SDS011;59438;45.014;39.006;2023-02-01T07:19:21;24.55;;;11.20;;
61635;SDS011;59438;45.014;39.006;2023-02-01T07:21:48;22.13;;;10.50;;
61635;SDS011;59438;45.014;39.006;2023-02-01T07:24:14;31.80;;;14.23;;
61635;SDS011;59438;45.014;39.006;2023-02-01T07:26:40;24.08;;;11.25;;
61635;SDS011;59438;45.014;39.006;2023-02-01T07:29:07;24.60;;;11.57;;
61635;SDS011;59438;45.014;39.006;2023-02-01T07:31:33;19.98;;;10.85;;
61635;SDS011;59438;45.014;39.006;2023-02-01T07:33:59;21.25;;;11.10;;
61635;SDS011;59438;45.014;39.006;2023-02-01T07:36:27;20.40;;;10.15;;
61635;SDS011;59438;45.014;39.006;2023-02-01T07:38:54;20.90;;;9.85;;
61635;SDS011;59438;45.014;39.006;2023-02-01T07:41:20;18.23;;;9.57;;
61635;SDS011;59438;45.014;39.006;2023-02-01T07:43:46;16.45;;;9.02;;
61635;SDS011;59438;45.014;39.006;2023-02-01T07:46:13;20.27;;;9.82;;
61635;SDS011;59438;45.014;39.006;2023-02-01T07:48:39;18.60;;;9.55;;
61635;SDS011;59438;45.014;39.006;2023-02-01T07:51:07;25.25;;;11.82;;
61635;SDS011;59438;45.014;39.006;2023-02-01T07:53:37;19.88;;;10.65;;
61635;SDS011;59438;45.014;39.006;2023-02-01T07:56:04;20.73;;;11.05;;
61635;SDS011;59438;45.014;39.006;2023-02-01T07:58:35;18.08;;;9.93;;
61635;SDS011;59438;45.014;39.006;2023-02-01T08:01:01;21.73;;;10.52;;
61635;SDS011;59438;45.014;39.006;2023-02-01T08:03:27;22.35;;;10.75;;
61635;SDS011;59438;45.014;39.006;2023-02-01T08:05:54;19.52;;;10.52;;
61635;SDS011;59438;45.014;39.006;2023-02-01T08:08:20;23.52;;;10.90;;
61635;SDS011;59438;45.014;39.006;2023-02-01T08:10:48;16.15;;;9.48;;
61635;SDS011;59438;45.014;39.006;2023-02-01T08:13:14;18.23;;;9.98;;
61635;SDS011;59438;45.014;39.006;2023-02-01T08:15:41;19.20;;;9.55;;
61635;SDS011;59438;45.014;39.006;2023-02-01T08:18:07;22.63;;;11.27;;
61635;SDS011;59438;45.014;39.006;2023-02-01T08:20:34;19.73;;;10.50;;
61635;SDS011;59438;45.014;39.006;2023-02-01T08:23:00;20.35;;;10.50;;
61635;SDS011;59438;45.014;39.006;2023-02-01T08:25:26;18.95;;;10.73;;
61635;SDS011;59438;45.014;39.006;2023-02-01T08:27:54;19.55;;;10.70;;
61635;SDS011;59438;45.014;39.006;2023-02-01T08:30:21;19.38;;;10.30;;
61635;SDS011;59438;45.014;39.006;2023-02-01T08:32:47;25.50;;;11.23;;
61635;SDS011;59438;45.014;39.006;2023-02-01T08:35:13;18.48;;;9.18;;
61635;SDS011;59438;45.014;39.006;2023-02-01T08:37:40;17.15;;;9.48;;
61635;SDS011;59438;45.014;39.006;2023-02-01T08:40:06;16.02;;;8.90;;
61635;SDS011;59438;45.014;39.006;2023-02-01T08:42:34;15.43;;;8.90;;
61635;SDS011;59438;45.014;39.006;2023-02-01T08:45:01;17.92;;;9.88;;
61635;SDS011;59438;45.014;39.006;2023-02-01T08:47:28;19.80;;;10.45;;
61635;SDS011;59438;45.014;39.006;2023-02-01T08:49:55;15.13;;;9.27;;
61635;SDS011;59438;45.014;39.006;2023-02-01T08:52:22;18.40;;;10.50;;
61635;SDS011;59438;45.014;39.006;2023-02-01T08:54:48;19.70;;;10.82;;
61635;SDS011;59438;45.014;39.006;2023-02-01T08:57:15;19.55;;;9.35;;
61635;SDS011;59438;45.014;39.006;2023-02-01T08:59:41;22.90;;;8.88;;
61635;SDS011;59438;45.014;39.006;2023-02-01T09:02:09;15.65;;;8.73;;
61635;SDS011;59438;45.014;39.006;2023-02-01T09:04:38;16.23;;;8.67;;
61635;SDS011;59438;45.014;39.006;2023-02-01T09:07:04;18.65;;;9.25;;
61635;SDS011;59438;45.014;39.006;2023-02-01T09:09:30;20.30;;;10.48;;
61635;SDS011;59438;45.014;39.006;2023-02-01T09:11:57;22.50;;;11.52;;
61635;SDS011;59438;45.014;39.006;2023-02-01T09:14:23;19.92;;;12.18;;
61635;SDS011;59438;45.014;39.006;2023-02-01T09:16:49;21.75;;;13.40;;
61635;SDS011;59438;45.014;39.006;2023-02-01T09:19:17;20.45;;;11.20;;
61635;SDS011;59438;45.014;39.006;2023-02-01T09:21:43;27.70;;;15.57;;
61635;SDS011;59438;45.014;39.006;2023-02-01T09:24:10;21.15;;;11.38;;
61635;SDS011;59438;45.014;39.006;2023-02-01T09:26:36;37.90;;;17.23;;
61635;SDS011;59438;45.014;39.006;2023-02-01T09:29:03;21.10;;;11.98;;
61635;SDS011;59438;45.014;39.006;2023-02-01T09:31:30;21.55;;;11.82;;
61635;SDS011;59438;45.014;39.006;2023-02-01T09:33:56;21.40;;;10.98;;
61635;SDS011;59438;45.014;39.006;2023-02-01T09:36:24;26.85;;;11.50;;
61635;SDS011;59438;45.014;39.006;2023-02-01T09:38:50;16.70;;;9.98;;
61635;SDS011;59438;45.014;39.006;2023-02-01T09:41:21;16.08;;;9.27;;
61635;SDS011;59438;45.014;39.006;2023-02-01T09:43:59;24.38;;;11.55;;
61635;SDS011;59438;45.014;39.006;2023-02-01T09:46:34;19.70;;;10.25;;
61635;SDS011;59438;45.014;39.006;2023-02-01T09:49:02;18.10;;;10.05;;
61635;SDS011;59438;45.014;39.006;2023-02-01T09:51:34;17.63;;;9.68;;
61635;SDS011;59438;45.014;39.006;2023-02-01T09:54:04;21.45;;;10.20;;
61635;SDS011;59438;45.014;39.006;2023-02-01T09:56:36;18.17;;;10.05;;
61635;SDS011;59438;45.014;39.006;2023-02-01T09:59:09;21.20;;;10.35;;
61635;SDS011;59438;45.014;39.006;2023-02-01T10:01:46;18.80;;;11.20;;
61635;SDS011;59438;45.014;39.006;2023-02-01T10:04:14;20.45;;;10.50;;
61635;SDS011;59438;45.014;39.006;2023-02-01T10:06:48;25.08;;;14.05;;
61635;SDS011;59438;45.014;39.006;2023-02-01T10:09:34;15.00;;;9.10;;
61635;SDS011;59438;45.014;39.006;2023-02-01T10:12:22;22.02;;;11.98;;
61635;SDS011;59438;45.014;39.006;2023-02-01T10:15:17;22.08;;;13.25;;
61635;SDS011;59438;45.014;39.006;2023-02-01T10:17:54;19.25;;;11.35;;
61635;SDS011;59438;45.014;39.006;2023-02-01T10:20:36;14.95;;;8.38;;
61635;SDS011;59438;45.014;39.006;2023-02-01T10:23:21;11.80;;;7.18;;
61635;SDS011;59438;45.014;39.006;2023-02-01T10:26:08;31.02;;;18.70;;
61635;SDS011;59438;45.014;39.006;2023-02-01T10:28:43;45.40;;;30.88;;
61635;SDS011;59438;45.014;39.006;2023-02-01T10:31:13;21.85;;;14.90;;
61635;SDS011;59438;45.014;39.006;2023-02-01T10:33:42;25.10;;;16.20;;
61635;SDS011;59438;45.014;39.006;2023-02-01T10:36:13;20.08;;;13.32;;
61635;SDS011;59438;45.014;39.006;2023-02-01T10:38:44;22.25;;;14.80;;
61635;SDS011;59438;45.014;39.006;2023-02-01T10:41:12;16.02;;;8.80;;
61635;SDS011;59438;45.014;39.006;2023-02-01T10:43:40;20.95;;;9.50;;
61635;SDS011;59438;45.014;39.006;2023-02-01T10:46:07;17.00;;;8.95;;
61635;SDS011;59438;45.014;39.006;2023-02-01T10:48:34;15.57;;;7.90;;
61635;SDS011;59438;45.014;39.006;2023-02-01T10:51:02;14.25;;;7.82;;
61635;SDS011;59438;45.014;39.006;2023-02-01T10:53:38;16.77;;;9.85;;
61635;SDS011;59438;45.014;39.006;2023-02-01T10:56:11;14.98;;;8.38;;
61635;SDS011;59438;45.014;39.006;2023-02-01T10:58:42;16.08;;;8.60;;
61635;SDS011;59438;45.014;39.006;2023-02-01T11:01:10;15.65;;;8.85;;
61635;SDS011;59438;45.014;39.006;2023-02-01T11:03:43;13.95;;;8.10;;
61635;SDS011;59438;45.014;39.006;2023-02-01T11:06:17;17.23;;;9.45;;
61635;SDS011;59438;45.014;39.006;2023-02-01T11:08:49;20.65;;;11.52;;
61635;SDS011;59438;45.014;39.006;2023-02-01T11:11:18;24.83;;;14.10;;
61635;SDS011;59438;45.014;39.006;2023-02-01T11:13:45;32.13;;;18.40;;
61635;SDS011;59438;45.014;39.006;2023-02-01T11:16:18;27.23;;;17.75;;
61635;SDS011;59438;45.014;39.006;2023-02-01T11:18:45;30.92;;;19.60;;
61635;SDS011;59438;45.014;39.006;2023-02-01T11:21:19;34.13;;;19.42;;
61635;SDS011;59438;45.014;39.006;2023-02-01T11:23:47;16.25;;;11.18;;
61635;SDS011;59438;45.014;39.006;2023-02-01T11:26:14;29.63;;;15.73;;
61635;SDS011;59438;45.014;39.006;2023-02-01T11:28:50;18.25;;;8.07;;
61635;SDS011;59438;45.014;39.006;2023-02-01T11:31:18;18.75;;;11.63;;
61635;SDS011;59438;45.014;39.006;2023-02-01T11:33:47;18.05;;;10.60;;
61635;SDS011;59438;45.014;39.006;2023-02-01T11:36:16;21.13;;;12.02;;
61635;SDS011;59438;45.014;39.006;2023-02-01T11:38:46;19.17;;;9.57;;
61635;SDS011;59438;45.014;39.006;2023-02-01T11:41:21;18.27;;;8.23;;
61635;SDS011;59438;45.014;39.006;2023-02-01T11:43:54;14.55;;;7.22;;
61635;SDS011;59438;45.014;39.006;2023-02-01T11:46:22;14.93;;;8.23;;
61635;SDS011;59438;45.014;39.006;2023-02-01T11:48:53;14.25;;;7.88;;
61635;SDS011;59438;45.014;39.006;2023-02-01T11:54:17;14.27;;;7.85;;
61635;SDS011;59438;45.014;39.006;2023-02-01T11:57:00;16.25;;;7.55;;
61635;SDS011;59438;45.014;39.006;2023-02-01T11:59:45;13.77;;;7.55;;
61635;SDS011;59438;45.014;39.006;2023-02-01T12:05:30;16.05;;;8.50;;
61635;SDS011;59438;45.014;39.006;2023-02-01T12:08:04;15.52;;;7.60;;
61635;SDS011;59438;45.014;39.006;2023-02-01T12:10:46;14.82;;;6.90;;
61635;SDS011;59438;45.014;39.006;2023-02-01T12:13:25;12.95;;;6.47;;
61635;SDS011;59438;45.014;39.006;2023-02-01T12:16:08;13.73;;;7.15;;
61635;SDS011;59438;45.014;39.006;2023-02-01T12:18:52;12.25;;;6.35;;
61635;SDS011;59438;45.014;39.006;2023-02-01T12:21:36;11.02;;;6.80;;
61635;SDS011;59438;45.014;39.006;2023-02-01T12:24:21;10.52;;;6.68;;
61635;SDS011;59438;45.014;39.006;2023-02-01T12:27:12;17.65;;;6.82;;
61635;SDS011;59438;45.014;39.006;2023-02-01T12:30:02;12.60;;;6.75;;
61635;SDS011;59438;45.014;39.006;2023-02-01T12:32:52;13.02;;;6.47;;
61635;SDS011;59438;45.014;39.006;2023-02-01T12:38:20;21.27;;;6.53;;
61635;SDS011;59438;45.014;39.006;2023-02-01T12:41:04;10.98;;;6.65;;
61635;SDS011;59438;45.014;39.006;2023-02-01T12:43:42;13.77;;;7.30;;
61635;SDS011;59438;45.014;39.006;2023-02-01T12:46:16;14.07;;;7.10;;
61635;SDS011;59438;45.014;39.006;2023-02-01T12:48:50;13.60;;;6.50;;
61635;SDS011;59438;45.014;39.006;2023-02-01T12:51:23;8.68;;;5.80;;
61635;SDS011;59438;45.014;39.006;2023-02-01T12:56:21;19.70;;;6.57;;
61635;SDS011;59438;45.014;39.006;2023-02-01T12:58:53;16.08;;;6.63;;
61635;SDS011;59438;45.014;39.006;2023-02-01T13:01:21;15.15;;;7.32;;
61635;SDS011;59438;45.014;39.006;2023-02-01T13:03:55;13.50;;;6.63;;
61635;SDS011;59438;45.014;39.006;2023-02-01T13:06:28;11.45;;;6.28;;
61635;SDS011;59438;45.014;39.006;2023-02-01T13:09:00;13.15;;;6.43;;
61635;SDS011;59438;45.014;39.006;2023-02-01T13:11:31;15.13;;;6.97;;
61635;SDS011;59438;45.014;39.006;2023-02-01T13:14:01;18.15;;;8.15;;
61635;SDS011;59438;45.014;39.006;2023-02-01T13:16:31;19.70;;;8.07;;
61635;SDS011;59438;45.014;39.006;2023-02-01T13:19:05;18.80;;;7.88;;
61635;SDS011;59438;45.014;39.006;2023-02-01T13:21:39;17.13;;;8.00;;
61635;SDS011;59438;45.014;39.006;2023-02-01T13:24:13;18.43;;;7.77;;
61635;SDS011;59438;45.014;39.006;2023-02-01T13:26:52;17.73;;;8.32;;
61635;SDS011;59438;45.014;39.006;2023-02-01T13:29:20;21.45;;;8.23;;
61635;SDS011;59438;45.014;39.006;2023-02-01T13:31:52;12.43;;;7.32;;
61635;SDS011;59438;45.014;39.006;2023-02-01T13:34:45;23.48;;;7.57;;
61635;SDS011;59438;45.014;39.006;2023-02-01T13:37:39;19.70;;;7.95;;
61635;SDS011;59438;45.014;39.006;2023-02-01T13:40:36;15.73;;;6.72;;
61635;SDS011;59438;45.014;39.006;2023-02-01T13:43:06;14.13;;;6.68;;
61635;SDS011;59438;45.014;39.006;2023-02-01T13:45:41;15.75;;;6.70;;
61635;SDS011;59438;45.014;39.006;2023-02-01T13:48:21;18.95;;;7.50;;
61635;SDS011;59438;45.014;39.006;2023-02-01T13:50:52;16.27;;;8.43;;
61635;SDS011;59438;45.014;39.006;2023-02-01T13:55:54;19.50;;;8.20;;
61635;SDS011;59438;45.014;39.006;2023-02-01T13:58:29;18.55;;;8.80;;
61635;SDS011;59438;45.014;39.006;2023-02-01T14:03:58;24.73;;;8.38;;
61635;SDS011;59438;45.014;39.006;2023-02-01T14:06:38;21.65;;;8.20;;
61635;SDS011;59438;45.014;39.006;2023-02-01T14:09:18;20.02;;;8.05;;
61635;SDS011;59438;45.014;39.006;2023-02-01T14:11:56;23.55;;;7.75;;
61635;SDS011;59438;45.014;39.006;2023-02-01T14:17:40;29.63;;;9.38;;
61635;SDS011;59438;45.014;39.006;2023-02-01T14:23:13;24.55;;;9.02;;
61635;SDS011;59438;45.014;39.006;2023-02-01T14:25:42;20.02;;;9.95;;
61635;SDS011;59438;45.014;39.006;2023-02-01T14:28:10;22.42;;;9.55;;
61635;SDS011;59438;45.014;39.006;2023-02-01T14:30:46;43.90;;;24.75;;
61635;SDS011;59438;45.014;39.006;2023-02-01T14:33:19;26.48;;;16.17;;
61635;SDS011;59438;45.014;39.006;2023-02-01T14:35:55;39.22;;;21.40;;
61635;SDS011;59438;45.014;39.006;2023-02-01T14:38:30;27.90;;;15.60;;
61635;SDS011;59438;45.014;39.006;2023-02-01T14:41:10;23.10;;;12.77;;
61635;SDS011;59438;45.014;39.006;2023-02-01T14:43:50;35.25;;;17.13;;
61635;SDS011;59438;45.014;39.006;2023-02-01T14:49:30;26.27;;;12.32;;
61635;SDS011;59438;45.014;39.006;2023-02-01T14:51:58;27.33;;;13.07;;
61635;SDS011;59438;45.014;39.006;2023-02-01T14:54:27;24.98;;;13.43;;
61635;SDS011;59438;45.014;39.006;2023-02-01T14:56:56;22.70;;;9.68;;
61635;SDS011;59438;45.014;39.006;2023-02-01T14:59:25;44.95;;;22.92;;
61635;SDS011;59438;45.014;39.006;2023-02-01T15:01:56;67.97;;;34.85;;
61635;SDS011;59438;45.014;39.006;2023-02-01T15:04:24;56.97;;;28.38;;